sensor_id;sensor_type;location;lat;lon;timestamp;temperature;humidity
2407;DHT22;37709;53.480;9.688;2024-01-15T00:01:12;0.50;99.90
2407;DHT22;37709;53.480;9.688;2024-01-15T00:03:40;0.50;99.90
2407;DHT22;37709;53.480;9.688;2024-01-15T00:06:09;0.50;99.90
2407;DHT22;37709;53.480;9.688;2024-01-15T00:08:38;0.50;99.90
2407;DHT22;37709;53.480;9.688;2024-01-15T00:11:05;0.50;99.90
2407;DHT22;37709;53.480;9.688;2024-01-15T00:13:34;0.60;99.90
2407;DHT22;37709;53.480;9.688;2024-01-15T00:16:01;0.50;99.90
2407;DHT22;37709;53.480;9.688;2024-01-15T00:18:28;0.50;99.90
2407;DHT22;37709;53.480;9.688;2024-01-15T00:20:56;0.50;99.90
2407;DHT22;37709;53.480;9.688;2024-01-15T00:23:23;0.50;99.90
2407;DHT22;37709;53.480;9.688;2024-01-15T00:25:54;0.40;99.90
2407;DHT22;37709;53.480;9.688;2024-01-15T00:28:23;0.40;99.90
2407;DHT22;37709;53.480;9.688;2024-01-15T00:30:50;0.40;99.90
2407;DHT22;37709;53.480;9.688;2024-01-15T00:33:18;0.50;99.90
2407;DHT22;37709;53.480;9.688;2024-01-15T00:35:45;0.50;99.90
2407;DHT22;37709;53.480;9.688;2024-01-15T00:38:12;0.40;99.90
2407;DHT22;37709;53.480;9.688;2024-01-15T00:40:41;0.50;99.90
2407;DHT22;37709;53.480;9.688;2024-01-15T00:43:10;0.50;99.90
2407;DHT22;37709;53.480;9.688;2024-01-15T00:45:40;0.40;99.90
2407;DHT22;37709;53.480;9.688;2024-01-15T00:48:07;0.30;99.90
2407;DHT22;37709;53.480;9.688;2024-01-15T00:50:35;0.40;99.90
2407;DHT22;37709;53.480;9.688;2024-01-15T00:53:02;0.50;99.90
2407;DHT22;37709;53.480;9.688;2024-01-15T00:55:29;0.60;99.90
2407;DHT22;37709;53.480;9.688;2024-01-15T00:57:57;0.60;99.90
2407;DHT22;37709;53.480;9.688;2024-01-15T01:00:24;0.60;99.90
2407;DHT22;37709;53.480;9.688;2024-01-15T01:02:52;0.70;99.90
2407;DHT22;37709;53.480;9.688;2024-01-15T01:05:20;0.60;99.90
2407;DHT22;37709;53.480;9.688;2024-01-15T01:07:48;0.50;99.90
2407;DHT22;37709;53.480;9.688;2024-01-15T01:10:15;0.50;99.90
2407;DHT22;37709;53.480;9.688;2024-01-15T01:12:42;0.50;99.90
2407;DHT22;37709;53.480;9.688;2024-01-15T01:15:11;0.40;99.90
2407;DHT22;37709;53.480;9.688;2024-01-15T01:17:40;0.50;99.90
2407;DHT22;37709;53.480;9.688;2024-01-15T01:20:09;0.60;99.90
2407;DHT22;37709;53.480;9.688;2024-01-15T01:22:39;0.60;99.90
2407;DHT22;37709;53.480;9.688;2024-01-15T01:25:06;0.70;99.90
2407;DHT22;37709;53.480;9.688;2024-01-15T01:27:35;0.70;99.90
2407;DHT22;37709;53.480;9.688;2024-01-15T01:30:08;0.80;99.90
2407;DHT22;37709;53.480;9.688;2024-01-15T01:32:35;0.80;99.90
2407;DHT22;37709;53.480;9.688;2024-01-15T01:35:04;0.70;99.90
2407;DHT22;37709;53.480;9.688;2024-01-15T01:37:32;0.60;99.90
2407;DHT22;37709;53.480;9.688;2024-01-15T01:40:05;0.60;99.90
2407;DHT22;37709;53.480;9.688;2024-01-15T01:42:33;0.70;99.90
2407;DHT22;37709;53.480;9.688;2024-01-15T01:45:01;0.70;99.90
2407;DHT22;37709;53.480;9.688;2024-01-15T01:47:28;0.60;99.90
2407;DHT22;37709;53.480;9.688;2024-01-15T01:49:57;0.70;99.90
2407;DHT22;37709;53.480;9.688;2024-01-15T01:52:26;0.60;99.90
2407;DHT22;37709;53.480;9.688;2024-01-15T01:54:54;0.60;99.90
2407;DHT22;37709;53.480;9.688;2024-01-15T01:57:22;0.50;99.90
2407;DHT22;37709;53.480;9.688;2024-01-15T01:59:50;0.60;99.90
2407;DHT22;37709;53.480;9.688;2024-01-15T02:02:18;0.60;99.90
2407;DHT22;37709;53.480;9.688;2024-01-15T02:04:47;0.50;99.90
2407;DHT22;37709;53.480;9.688;2024-01-15T02:07:15;0.50;99.90
2407;DHT22;37709;53.480;9.688;2024-01-15T02:09:45;0.60;99.90
2407;DHT22;37709;53.480;9.688;2024-01-15T02:12:14;0.70;99.90
2407;DHT22;37709;53.480;9.688;2024-01-15T02:14:41;0.80;99.90
2407;DHT22;37709;53.480;9.688;2024-01-15T02:17:09;0.80;99.90
2407;DHT22;37709;53.480;9.688;2024-01-15T02:19:39;0.90;99.90
2407;DHT22;37709;53.480;9.688;2024-01-15T02:22:08;0.90;99.90
2407;DHT22;37709;53.480;9.688;2024-01-15T02:24:36;0.90;99.90
2407;DHT22;37709;53.480;9.688;2024-01-15T02:27:05;1.00;99.90
2407;DHT22;37709;53.480;9.688;2024-01-15T02:29:35;0.90;99.90
2407;DHT22;37709;53.480;9.688;2024-01-15T02:32:05;0.80;99.90
2407;DHT22;37709;53.480;9.688;2024-01-15T02:34:33;0.70;99.90
2407;DHT22;37709;53.480;9.688;2024-01-15T02:37:02;0.70;99.90
2407;DHT22;37709;53.480;9.688;2024-01-15T02:39:29;0.70;99.90
2407;DHT22;37709;53.480;9.688;2024-01-15T02:41:57;0.70;99.90
2407;DHT22;37709;53.480;9.688;2024-01-15T02:44:24;0.80;99.90
2407;DHT22;37709;53.480;9.688;2024-01-15T02:46:52;0.80;99.90
2407;DHT22;37709;53.480;9.688;2024-01-15T02:49:20;0.80;99.90
2407;DHT22;37709;53.480;9.688;2024-01-15T02:51:49;0.70;99.90
2407;DHT22;37709;53.480;9.688;2024-01-15T02:54:17;0.70;99.90
2407;DHT22;37709;53.480;9.688;2024-01-15T02:56:44;0.60;99.90
2407;DHT22;37709;53.480;9.688;2024-01-15T02:59:13;0.70;99.90
2407;DHT22;37709;53.480;9.688;2024-01-15T03:01:42;0.60;99.90
2407;DHT22;37709;53.480;9.688;2024-01-15T03:04:10;0.60;99.90
2407;DHT22;37709;53.480;9.688;2024-01-15T03:06:39;0.60;99.90
2407;DHT22;37709;53.480;9.688;2024-01-15T03:09:08;0.50;99.90
2407;DHT22;37709;53.480;9.688;2024-01-15T03:11:39;0.70;99.90
2407;DHT22;37709;53.480;9.688;2024-01-15T03:14:10;0.90;99.90
2407;DHT22;37709;53.480;9.688;2024-01-15T03:16:37;1.10;99.90
2407;DHT22;37709;53.480;9.688;2024-01-15T03:19:07;1.00;99.90
2407;DHT22;37709;53.480;9.688;2024-01-15T03:21:35;1.00;99.90
2407;DHT22;37709;53.480;9.688;2024-01-15T03:24:04;1.10;99.90
2407;DHT22;37709;53.480;9.688;2024-01-15T03:26:31;1.10;99.90
2407;DHT22;37709;53.480;9.688;2024-01-15T03:28:59;1.20;99.90
2407;DHT22;37709;53.480;9.688;2024-01-15T03:31:26;1.10;99.90
2407;DHT22;37709;53.480;9.688;2024-01-15T03:33:53;0.90;99.90
2407;DHT22;37709;53.480;9.688;2024-01-15T03:36:21;0.80;99.90
2407;DHT22;37709;53.480;9.688;2024-01-15T03:38:49;0.90;99.90
2407;DHT22;37709;53.480;9.688;2024-01-15T03:41:17;0.90;99.90
2407;DHT22;37709;53.480;9.688;2024-01-15T03:43:46;0.80;99.90
2407;DHT22;37709;53.480;9.688;2024-01-15T03:46:14;0.70;99.90
2407;DHT22;37709;53.480;9.688;2024-01-15T03:48:44;0.60;99.90
2407;DHT22;37709;53.480;9.688;2024-01-15T03:51:12;0.50;99.90
2407;DHT22;37709;53.480;9.688;2024-01-15T03:53:40;0.50;99.90
2407;DHT22;37709;53.480;9.688;2024-01-15T03:56:08;0.40;99.90
2407;DHT22;37709;53.480;9.688;2024-01-15T03:58:35;0.50;99.90
2407;DHT22;37709;53.480;9.688;2024-01-15T04:01:03;0.40;99.90
2407;DHT22;37709;53.480;9.688;2024-01-15T04:03:30;0.40;99.90
2407;DHT22;37709;53.480;9.688;2024-01-15T04:05:58;0.40;99.90
2407;DHT22;37709;53.480;9.688;2024-01-15T04:08:25;0.50;99.90
2407;DHT22;37709;53.480;9.688;2024-01-15T04:10:54;0.50;99.90
2407;DHT22;37709;53.480;9.688;2024-01-15T04:13:22;0.50;99.90
2407;DHT22;37709;53.480;9.688;2024-01-15T04:15:49;0.50;99.90
2407;DHT22;37709;53.480;9.688;2024-01-15T04:18:19;0.40;99.90
2407;DHT22;37709;53.480;9.688;2024-01-15T04:20:46;0.40;99.90
2407;DHT22;37709;53.480;9.688;2024-01-15T04:23:15;0.30;99.90
2407;DHT22;37709;53.480;9.688;2024-01-15T04:25:42;0.40;99.90
2407;DHT22;37709;53.480;9.688;2024-01-15T04:28:12;0.40;99.90
2407;DHT22;37709;53.480;9.688;2024-01-15T04:30:39;0.50;99.90
2407;DHT22;37709;53.480;9.688;2024-01-15T04:33:07;0.30;99.90
2407;DHT22;37709;53.480;9.688;2024-01-15T04:35:34;0.50;99.90
2407;DHT22;37709;53.480;9.688;2024-01-15T04:38:02;0.60;99.90
2407;DHT22;37709;53.480;9.688;2024-01-15T04:40:30;0.60;99.90
2407;DHT22;37709;53.480;9.688;2024-01-15T04:42:57;0.60;99.90
2407;DHT22;37709;53.480;9.688;2024-01-15T04:45:24;0.70;99.90
2407;DHT22;37709;53.480;9.688;2024-01-15T04:47:55;0.90;99.90
2407;DHT22;37709;53.480;9.688;2024-01-15T04:50:27;0.90;99.90
2407;DHT22;37709;53.480;9.688;2024-01-15T04:52:55;1.00;99.90
2407;DHT22;37709;53.480;9.688;2024-01-15T04:55:22;0.90;99.90
2407;DHT22;37709;53.480;9.688;2024-01-15T04:57:49;0.70;99.90
2407;DHT22;37709;53.480;9.688;2024-01-15T05:00:19;0.60;99.90
2407;DHT22;37709;53.480;9.688;2024-01-15T05:02:49;0.60;99.90
2407;DHT22;37709;53.480;9.688;2024-01-15T05:05:20;0.50;99.90
2407;DHT22;37709;53.480;9.688;2024-01-15T05:07:48;0.60;99.90
2407;DHT22;37709;53.480;9.688;2024-01-15T05:10:17;0.60;99.90
2407;DHT22;37709;53.480;9.688;2024-01-15T05:12:44;0.70;99.90
2407;DHT22;37709;53.480;9.688;2024-01-15T05:15:12;0.60;99.90
2407;DHT22;37709;53.480;9.688;2024-01-15T05:17:39;0.60;99.90
2407;DHT22;37709;53.480;9.688;2024-01-15T05:20:08;0.60;99.90
2407;DHT22;37709;53.480;9.688;2024-01-15T05:22:37;0.60;99.90
2407;DHT22;37709;53.480;9.688;2024-01-15T05:25:04;0.80;99.90
2407;DHT22;37709;53.480;9.688;2024-01-15T05:27:31;0.80;99.90
2407;DHT22;37709;53.480;9.688;2024-01-15T05:30:00;0.80;99.90
2407;DHT22;37709;53.480;9.688;2024-01-15T05:32:27;0.90;99.90
2407;DHT22;37709;53.480;9.688;2024-01-15T05:34:59;0.80;99.90
2407;DHT22;37709;53.480;9.688;2024-01-15T05:37:29;0.70;99.90
2407;DHT22;37709;53.480;9.688;2024-01-15T05:39:56;0.80;99.90
2407;DHT22;37709;53.480;9.688;2024-01-15T05:42:25;0.80;99.90
2407;DHT22;37709;53.480;9.688;2024-01-15T05:44:54;0.80;99.90
2407;DHT22;37709;53.480;9.688;2024-01-15T05:47:21;1.00;99.90
2407;DHT22;37709;53.480;9.688;2024-01-15T05:49:49;1.10;99.90
2407;DHT22;37709;53.480;9.688;2024-01-15T05:52:16;1.10;99.90
2407;DHT22;37709;53.480;9.688;2024-01-15T05:54:45;1.20;99.90
2407;DHT22;37709;53.480;9.688;2024-01-15T05:57:13;1.20;99.90
2407;DHT22;37709;53.480;9.688;2024-01-15T05:59:40;1.20;99.90
2407;DHT22;37709;53.480;9.688;2024-01-15T06:02:08;1.20;99.90
2407;DHT22;37709;53.480;9.688;2024-01-15T06:04:35;1.20;99.90
2407;DHT22;37709;53.480;9.688;2024-01-15T06:07:02;1.20;99.90
2407;DHT22;37709;53.480;9.688;2024-01-15T06:09:31;1.20;99.90
2407;DHT22;37709;53.480;9.688;2024-01-15T06:11:59;1.10;99.90
2407;DHT22;37709;53.480;9.688;2024-01-15T06:14:26;1.10;99.90
2407;DHT22;37709;53.480;9.688;2024-01-15T06:16:54;1.00;99.90
2407;DHT22;37709;53.480;9.688;2024-01-15T06:19:21;1.00;99.90
2407;DHT22;37709;53.480;9.688;2024-01-15T06:21:50;1.00;99.90
2407;DHT22;37709;53.480;9.688;2024-01-15T06:24:18;1.00;99.90
2407;DHT22;37709;53.480;9.688;2024-01-15T06:26:47;0.90;99.90
2407;DHT22;37709;53.480;9.688;2024-01-15T06:29:14;0.90;99.90
2407;DHT22;37709;53.480;9.688;2024-01-15T06:31:42;1.00;99.90
2407;DHT22;37709;53.480;9.688;2024-01-15T06:34:09;1.00;99.90
2407;DHT22;37709;53.480;9.688;2024-01-15T06:36:37;1.00;99.90
2407;DHT22;37709;53.480;9.688;2024-01-15T06:39:05;1.00;99.90
2407;DHT22;37709;53.480;9.688;2024-01-15T06:41:32;0.90;99.90
2407;DHT22;37709;53.480;9.688;2024-01-15T06:43:59;0.80;99.90
2407;DHT22;37709;53.480;9.688;2024-01-15T06:46:30;0.80;99.90
2407;DHT22;37709;53.480;9.688;2024-01-15T06:48:59;0.60;99.90
2407;DHT22;37709;53.480;9.688;2024-01-15T06:51:26;0.60;99.90
2407;DHT22;37709;53.480;9.688;2024-01-15T06:53:54;0.60;99.90
2407;DHT22;37709;53.480;9.688;2024-01-15T06:56:23;0.50;99.90
2407;DHT22;37709;53.480;9.688;2024-01-15T06:58:50;0.70;99.90
2407;DHT22;37709;53.480;9.688;2024-01-15T07:01:17;0.70;99.90
2407;DHT22;37709;53.480;9.688;2024-01-15T07:03:46;0.70;99.90
2407;DHT22;37709;53.480;9.688;2024-01-15T07:06:14;0.70;99.90
2407;DHT22;37709;53.480;9.688;2024-01-15T07:08:41;0.80;99.90
2407;DHT22;37709;53.480;9.688;2024-01-15T07:11:11;0.70;99.90
2407;DHT22;37709;53.480;9.688;2024-01-15T07:13:40;0.70;99.90
2407;DHT22;37709;53.480;9.688;2024-01-15T07:16:09;0.70;99.90
2407;DHT22;37709;53.480;9.688;2024-01-15T07:18:37;0.80;99.90
2407;DHT22;37709;53.480;9.688;2024-01-15T07:21:05;0.90;99.90
2407;DHT22;37709;53.480;9.688;2024-01-15T07:23:33;1.00;99.90
2407;DHT22;37709;53.480;9.688;2024-01-15T07:26:01;1.00;99.90
2407;DHT22;37709;53.480;9.688;2024-01-15T07:28:31;1.10;99.90
2407;DHT22;37709;53.480;9.688;2024-01-15T07:30:58;1.10;99.90
2407;DHT22;37709;53.480;9.688;2024-01-15T07:33:28;1.20;99.90
2407;DHT22;37709;53.480;9.688;2024-01-15T07:35:58;1.10;99.90
2407;DHT22;37709;53.480;9.688;2024-01-15T07:38:31;1.10;99.90
2407;DHT22;37709;53.480;9.688;2024-01-15T07:40:58;1.00;99.90
2407;DHT22;37709;53.480;9.688;2024-01-15T07:43:25;1.00;99.90
2407;DHT22;37709;53.480;9.688;2024-01-15T07:45:53;0.90;99.90
2407;DHT22;37709;53.480;9.688;2024-01-15T07:48:21;0.90;99.90
2407;DHT22;37709;53.480;9.688;2024-01-15T07:50:50;0.80;99.90
2407;DHT22;37709;53.480;9.688;2024-01-15T07:53:20;0.80;99.90
2407;DHT22;37709;53.480;9.688;2024-01-15T07:55:47;0.80;99.90
2407;DHT22;37709;53.480;9.688;2024-01-15T07:58:15;0.90;99.90
2407;DHT22;37709;53.480;9.688;2024-01-15T08:00:43;0.80;99.90
2407;DHT22;37709;53.480;9.688;2024-01-15T08:03:12;0.90;99.90
2407;DHT22;37709;53.480;9.688;2024-01-15T08:05:40;0.90;99.90
2407;DHT22;37709;53.480;9.688;2024-01-15T08:08:07;0.90;99.90
2407;DHT22;37709;53.480;9.688;2024-01-15T08:10:36;0.90;99.90
2407;DHT22;37709;53.480;9.688;2024-01-15T08:13:04;0.80;99.90
2407;DHT22;37709;53.480;9.688;2024-01-15T08:15:31;0.80;99.90
2407;DHT22;37709;53.480;9.688;2024-01-15T08:17:59;0.80;99.90
2407;DHT22;37709;53.480;9.688;2024-01-15T08:20:28;0.80;99.90
2407;DHT22;37709;53.480;9.688;2024-01-15T08:22:56;0.90;99.90
2407;DHT22;37709;53.480;9.688;2024-01-15T08:25:26;0.90;99.90
2407;DHT22;37709;53.480;9.688;2024-01-15T08:27:56;0.90;99.90
2407;DHT22;37709;53.480;9.688;2024-01-15T08:30:24;0.90;99.90
2407;DHT22;37709;53.480;9.688;2024-01-15T08:32:55;1.00;99.90
2407;DHT22;37709;53.480;9.688;2024-01-15T08:35:27;1.00;99.90
2407;DHT22;37709;53.480;9.688;2024-01-15T08:37:54;1.00;99.90
2407;DHT22;37709;53.480;9.688;2024-01-15T08:40:25;1.00;99.90
2407;DHT22;37709;53.480;9.688;2024-01-15T08:42:57;1.10;99.90
2407;DHT22;37709;53.480;9.688;2024-01-15T08:45:24;1.10;99.90
2407;DHT22;37709;53.480;9.688;2024-01-15T08:47:56;1.00;99.90
2407;DHT22;37709;53.480;9.688;2024-01-15T08:50:24;1.10;99.90
2407;DHT22;37709;53.480;9.688;2024-01-15T08:52:52;1.10;99.90
2407;DHT22;37709;53.480;9.688;2024-01-15T08:55:20;1.00;99.90
2407;DHT22;37709;53.480;9.688;2024-01-15T08:57:50;1.10;99.90
2407;DHT22;37709;53.480;9.688;2024-01-15T09:00:18;1.10;99.90
2407;DHT22;37709;53.480;9.688;2024-01-15T09:02:46;1.20;99.90
2407;DHT22;37709;53.480;9.688;2024-01-15T09:05:13;1.20;99.90
2407;DHT22;37709;53.480;9.688;2024-01-15T09:07:41;1.30;99.90
2407;DHT22;37709;53.480;9.688;2024-01-15T09:10:11;1.30;99.90
2407;DHT22;37709;53.480;9.688;2024-01-15T09:12:39;1.50;99.90
2407;DHT22;37709;53.480;9.688;2024-01-15T09:15:06;1.70;99.90
2407;DHT22;37709;53.480;9.688;2024-01-15T09:17:38;1.80;99.90
2407;DHT22;37709;53.480;9.688;2024-01-15T09:20:07;1.90;99.90
2407;DHT22;37709;53.480;9.688;2024-01-15T09:22:40;2.10;99.90
2407;DHT22;37709;53.480;9.688;2024-01-15T09:25:09;1.90;99.90
2407;DHT22;37709;53.480;9.688;2024-01-15T09:27:37;1.90;99.90
2407;DHT22;37709;53.480;9.688;2024-01-15T09:30:05;1.80;99.90
2407;DHT22;37709;53.480;9.688;2024-01-15T09:32:35;1.70;99.90
2407;DHT22;37709;53.480;9.688;2024-01-15T09:35:06;1.70;99.90
2407;DHT22;37709;53.480;9.688;2024-01-15T09:37:33;1.60;99.90
2407;DHT22;37709;53.480;9.688;2024-01-15T09:40:14;1.60;99.90
2407;DHT22;37709;53.480;9.688;2024-01-15T09:42:43;1.60;99.90
2407;DHT22;37709;53.480;9.688;2024-01-15T09:45:11;1.70;99.90
2407;DHT22;37709;53.480;9.688;2024-01-15T09:47:41;1.80;99.90
2407;DHT22;37709;53.480;9.688;2024-01-15T09:50:13;1.70;99.90
2407;DHT22;37709;53.480;9.688;2024-01-15T09:52:43;1.80;99.90
2407;DHT22;37709;53.480;9.688;2024-01-15T09:55:15;1.90;99.90
2407;DHT22;37709;53.480;9.688;2024-01-15T09:57:44;1.90;99.90
2407;DHT22;37709;53.480;9.688;2024-01-15T10:00:15;1.90;99.90
2407;DHT22;37709;53.480;9.688;2024-01-15T10:02:44;1.90;99.90
2407;DHT22;37709;53.480;9.688;2024-01-15T10:05:11;1.80;99.90
2407;DHT22;37709;53.480;9.688;2024-01-15T10:07:40;1.80;99.90
2407;DHT22;37709;53.480;9.688;2024-01-15T10:10:07;1.70;99.90
2407;DHT22;37709;53.480;9.688;2024-01-15T10:12:36;1.60;99.90
2407;DHT22;37709;53.480;9.688;2024-01-15T10:15:04;1.40;99.90
2407;DHT22;37709;53.480;9.688;2024-01-15T10:17:33;1.40;99.90
2407;DHT22;37709;53.480;9.688;2024-01-15T10:20:02;1.40;99.90
2407;DHT22;37709;53.480;9.688;2024-01-15T10:22:31;1.40;99.90
2407;DHT22;37709;53.480;9.688;2024-01-15T10:24:58;1.50;99.90
2407;DHT22;37709;53.480;9.688;2024-01-15T10:27:28;1.60;99.90
2407;DHT22;37709;53.480;9.688;2024-01-15T10:29:59;1.80;99.90
2407;DHT22;37709;53.480;9.688;2024-01-15T10:32:31;2.20;99.90
2407;DHT22;37709;53.480;9.688;2024-01-15T10:34:59;2.60;99.90
2407;DHT22;37709;53.480;9.688;2024-01-15T10:37:26;2.60;99.90
2407;DHT22;37709;53.480;9.688;2024-01-15T10:40:04;2.50;99.90
2407;DHT22;37709;53.480;9.688;2024-01-15T10:42:36;2.30;99.90
2407;DHT22;37709;53.480;9.688;2024-01-15T10:45:04;2.20;99.90
2407;DHT22;37709;53.480;9.688;2024-01-15T10:47:31;2.20;99.90
2407;DHT22;37709;53.480;9.688;2024-01-15T10:49:59;2.10;99.90
2407;DHT22;37709;53.480;9.688;2024-01-15T10:52:32;2.20;99.90
2407;DHT22;37709;53.480;9.688;2024-01-15T10:55:01;2.00;99.90
2407;DHT22;37709;53.480;9.688;2024-01-15T10:57:37;2.00;99.90
2407;DHT22;37709;53.480;9.688;2024-01-15T11:00:07;1.60;99.90
2407;DHT22;37709;53.480;9.688;2024-01-15T11:02:37;1.30;99.90
2407;DHT22;37709;53.480;9.688;2024-01-15T11:05:06;0.90;99.90
2407;DHT22;37709;53.480;9.688;2024-01-15T11:07:34;0.70;99.90
2407;DHT22;37709;53.480;9.688;2024-01-15T11:10:04;0.60;99.90
2407;DHT22;37709;53.480;9.688;2024-01-15T11:12:32;0.60;99.90
2407;DHT22;37709;53.480;9.688;2024-01-15T11:15:02;0.50;99.90
2407;DHT22;37709;53.480;9.688;2024-01-15T11:17:57;0.50;99.90
2407;DHT22;37709;53.480;9.688;2024-01-15T11:20:28;0.40;99.90
2407;DHT22;37709;53.480;9.688;2024-01-15T11:22:55;0.40;99.90
2407;DHT22;37709;53.480;9.688;2024-01-15T11:25:34;0.50;99.90
2407;DHT22;37709;53.480;9.688;2024-01-15T11:28:03;0.50;99.90
2407;DHT22;37709;53.480;9.688;2024-01-15T11:30:30;0.60;99.90
2407;DHT22;37709;53.480;9.688;2024-01-15T11:32:58;0.60;99.90
2407;DHT22;37709;53.480;9.688;2024-01-15T11:35:48;0.60;99.90
2407;DHT22;37709;53.480;9.688;2024-01-15T11:38:43;0.50;99.90
2407;DHT22;37709;53.480;9.688;2024-01-15T11:41:16;0.50;99.90
2407;DHT22;37709;53.480;9.688;2024-01-15T11:43:48;0.60;99.90
2407;DHT22;37709;53.480;9.688;2024-01-15T11:46:17;0.60;99.90
2407;DHT22;37709;53.480;9.688;2024-01-15T11:48:51;0.60;99.90
2407;DHT22;37709;53.480;9.688;2024-01-15T11:51:25;0.60;99.90
2407;DHT22;37709;53.480;9.688;2024-01-15T11:53:57;0.60;99.90
2407;DHT22;37709;53.480;9.688;2024-01-15T11:56:31;0.70;99.90
2407;DHT22;37709;53.480;9.688;2024-01-15T11:59:00;0.70;99.90
2407;DHT22;37709;53.480;9.688;2024-01-15T12:01:31;0.70;99.90
2407;DHT22;37709;53.480;9.688;2024-01-15T12:04:04;0.80;99.90
2407;DHT22;37709;53.480;9.688;2024-01-15T12:06:34;0.80;99.90
2407;DHT22;37709;53.480;9.688;2024-01-15T12:09:08;0.80;99.90
2407;DHT22;37709;53.480;9.688;2024-01-15T12:11:46;0.90;99.90
2407;DHT22;37709;53.480;9.688;2024-01-15T12:14:16;1.00;99.90
2407;DHT22;37709;53.480;9.688;2024-01-15T12:16:45;1.10;99.90
2407;DHT22;37709;53.480;9.688;2024-01-15T12:19:16;1.10;99.90
2407;DHT22;37709;53.480;9.688;2024-01-15T12:21:46;1.00;99.90
2407;DHT22;37709;53.480;9.688;2024-01-15T12:24:14;0.90;99.90
2407;DHT22;37709;53.480;9.688;2024-01-15T12:26:42;0.90;99.90
2407;DHT22;37709;53.480;9.688;2024-01-15T12:29:10;0.90;99.90
2407;DHT22;37709;53.480;9.688;2024-01-15T12:31:38;0.80;99.90
2407;DHT22;37709;53.480;9.688;2024-01-15T12:34:32;0.70;99.90
2407;DHT22;37709;53.480;9.688;2024-01-15T12:37:01;0.70;99.90
2407;DHT22;37709;53.480;9.688;2024-01-15T12:39:28;0.60;99.90
2407;DHT22;37709;53.480;9.688;2024-01-15T12:41:58;0.70;99.90
2407;DHT22;37709;53.480;9.688;2024-01-15T12:44:27;0.70;99.90
2407;DHT22;37709;53.480;9.688;2024-01-15T12:46:57;0.60;99.90
2407;DHT22;37709;53.480;9.688;2024-01-15T12:49:30;0.60;99.90
2407;DHT22;37709;53.480;9.688;2024-01-15T12:51:59;0.50;99.90
2407;DHT22;37709;53.480;9.688;2024-01-15T12:54:28;0.50;99.90
2407;DHT22;37709;53.480;9.688;2024-01-15T12:56:56;0.50;99.90
2407;DHT22;37709;53.480;9.688;2024-01-15T12:59:23;0.50;99.90
2407;DHT22;37709;53.480;9.688;2024-01-15T13:01:52;0.60;99.90
2407;DHT22;37709;53.480;9.688;2024-01-15T13:04:24;0.60;99.90
2407;DHT22;37709;53.480;9.688;2024-01-15T13:06:53;0.70;99.90
2407;DHT22;37709;53.480;9.688;2024-01-15T13:09:24;0.80;99.90
2407;DHT22;37709;53.480;9.688;2024-01-15T13:11:52;0.90;99.90
2407;DHT22;37709;53.480;9.688;2024-01-15T13:14:20;1.00;99.90
2407;DHT22;37709;53.480;9.688;2024-01-15T13:16:47;1.00;99.90
2407;DHT22;37709;53.480;9.688;2024-01-15T13:19:15;1.00;99.90
2407;DHT22;37709;53.480;9.688;2024-01-15T13:21:47;1.00;99.90
2407;DHT22;37709;53.480;9.688;2024-01-15T13:24:16;1.10;99.90
2407;DHT22;37709;53.480;9.688;2024-01-15T13:26:45;1.10;99.90
2407;DHT22;37709;53.480;9.688;2024-01-15T13:29:16;1.20;99.90
2407;DHT22;37709;53.480;9.688;2024-01-15T13:31:43;1.10;99.90
2407;DHT22;37709;53.480;9.688;2024-01-15T13:34:15;1.00;99.90
2407;DHT22;37709;53.480;9.688;2024-01-15T13:36:44;1.00;99.90
2407;DHT22;37709;53.480;9.688;2024-01-15T13:39:12;0.90;99.90
2407;DHT22;37709;53.480;9.688;2024-01-15T13:41:41;0.90;99.90
2407;DHT22;37709;53.480;9.688;2024-01-15T13:44:08;0.90;99.90
2407;DHT22;37709;53.480;9.688;2024-01-15T13:46:38;0.90;99.90
2407;DHT22;37709;53.480;9.688;2024-01-15T13:49:08;0.90;99.90
2407;DHT22;37709;53.480;9.688;2024-01-15T13:51:40;0.80;99.90
2407;DHT22;37709;53.480;9.688;2024-01-15T13:54:08;0.80;99.90
2407;DHT22;37709;53.480;9.688;2024-01-15T13:56:36;0.80;99.90
2407;DHT22;37709;53.480;9.688;2024-01-15T13:59:04;0.70;99.90
2407;DHT22;37709;53.480;9.688;2024-01-15T14:01:34;0.80;99.90
2407;DHT22;37709;53.480;9.688;2024-01-15T14:04:02;0.80;99.90
2407;DHT22;37709;53.480;9.688;2024-01-15T14:06:30;0.80;99.90
2407;DHT22;37709;53.480;9.688;2024-01-15T14:09:01;0.90;99.90
2407;DHT22;37709;53.480;9.688;2024-01-15T14:11:31;1.00;99.90
2407;DHT22;37709;53.480;9.688;2024-01-15T14:14:04;1.00;99.90
2407;DHT22;37709;53.480;9.688;2024-01-15T14:16:32;1.10;99.90
2407;DHT22;37709;53.480;9.688;2024-01-15T14:18:59;1.20;99.90
2407;DHT22;37709;53.480;9.688;2024-01-15T14:21:27;1.30;99.90
2407;DHT22;37709;53.480;9.688;2024-01-15T14:23:54;1.40;99.90
2407;DHT22;37709;53.480;9.688;2024-01-15T14:26:26;1.40;99.90
2407;DHT22;37709;53.480;9.688;2024-01-15T14:28:54;1.50;99.90
2407;DHT22;37709;53.480;9.688;2024-01-15T14:31:22;1.50;99.90
2407;DHT22;37709;53.480;9.688;2024-01-15T14:33:52;1.50;99.90
2407;DHT22;37709;53.480;9.688;2024-01-15T14:36:20;1.40;99.90
2407;DHT22;37709;53.480;9.688;2024-01-15T14:38:49;1.40;99.90
2407;DHT22;37709;53.480;9.688;2024-01-15T14:41:16;1.30;99.90
2407;DHT22;37709;53.480;9.688;2024-01-15T14:43:44;1.20;99.90
2407;DHT22;37709;53.480;9.688;2024-01-15T14:46:16;1.10;99.90
2407;DHT22;37709;53.480;9.688;2024-01-15T14:48:43;1.00;99.90
2407;DHT22;37709;53.480;9.688;2024-01-15T14:51:13;0.90;99.90
2407;DHT22;37709;53.480;9.688;2024-01-15T14:53:42;0.80;99.90
2407;DHT22;37709;53.480;9.688;2024-01-15T14:56:11;0.70;99.90
2407;DHT22;37709;53.480;9.688;2024-01-15T14:58:48;0.60;99.90
2407;DHT22;37709;53.480;9.688;2024-01-15T15:01:15;0.60;99.90
2407;DHT22;37709;53.480;9.688;2024-01-15T15:03:48;0.50;99.90
2407;DHT22;37709;53.480;9.688;2024-01-15T15:06:17;0.40;99.90
2407;DHT22;37709;53.480;9.688;2024-01-15T15:08:50;0.30;99.90
2407;DHT22;37709;53.480;9.688;2024-01-15T15:11:17;0.20;99.90
2407;DHT22;37709;53.480;9.688;2024-01-15T15:13:44;0.20;99.90
2407;DHT22;37709;53.480;9.688;2024-01-15T15:16:38;0.20;99.90
2407;DHT22;37709;53.480;9.688;2024-01-15T15:19:06;0.20;99.90
2407;DHT22;37709;53.480;9.688;2024-01-15T15:21:35;0.10;99.90
2407;DHT22;37709;53.480;9.688;2024-01-15T15:24:02;0.20;99.90
2407;DHT22;37709;53.480;9.688;2024-01-15T15:26:29;0.10;99.90
2407;DHT22;37709;53.480;9.688;2024-01-15T15:28:57;0.10;99.90
2407;DHT22;37709;53.480;9.688;2024-01-15T15:31:24;0.10;99.90
2407;DHT22;37709;53.480;9.688;2024-01-15T15:33:51;0.10;99.90
2407;DHT22;37709;53.480;9.688;2024-01-15T15:36:22;0.00;99.90
2407;DHT22;37709;53.480;9.688;2024-01-15T15:38:51;0.00;99.90
2407;DHT22;37709;53.480;9.688;2024-01-15T15:41:23;0.00;99.90
2407;DHT22;37709;53.480;9.688;2024-01-15T15:43:54;-0.10;99.90
2407;DHT22;37709;53.480;9.688;2024-01-15T15:46:22;-0.10;99.90
2407;DHT22;37709;53.480;9.688;2024-01-15T15:48:50;-0.20;99.90
2407;DHT22;37709;53.480;9.688;2024-01-15T15:51:21;-0.20;99.90
2407;DHT22;37709;53.480;9.688;2024-01-15T15:54:16;-0.20;99.90
2407;DHT22;37709;53.480;9.688;2024-01-15T15:56:44;-0.20;99.90
2407;DHT22;37709;53.480;9.688;2024-01-15T15:59:16;-0.20;99.90
2407;DHT22;37709;53.480;9.688;2024-01-15T16:01:50;-0.20;99.90
2407;DHT22;37709;53.480;9.688;2024-01-15T16:04:19;-0.30;99.90
2407;DHT22;37709;53.480;9.688;2024-01-15T16:06:47;-0.30;99.90
2407;DHT22;37709;53.480;9.688;2024-01-15T16:09:16;-0.30;99.90
2407;DHT22;37709;53.480;9.688;2024-01-15T16:11:45;-0.30;99.90
2407;DHT22;37709;53.480;9.688;2024-01-15T16:14:13;-0.30;99.90